sensor_id;sensor_type;location;lat;lon;timestamp;temperature;humidity
2463;DHT22;1243;54.298;10.172;2023-04-24T00:02:21;13.00;20.40
2463;DHT22;1243;54.298;10.172;2023-04-24T00:04:47;13.00;20.30
2463;DHT22;1243;54.298;10.172;2023-04-24T00:07:17;13.00;26.10
2463;DHT22;1243;54.298;10.172;2023-04-24T00:12:45;13.00;24.20
2463;DHT22;1243;54.298;10.172;2023-04-24T00:15:11;13.00;24.40
2463;DHT22;1243;54.298;10.172;2023-04-24T00:17:37;13.00;21.00
2463;DHT22;1243;54.298;10.172;2023-04-24T00:20:07;13.00;16.40
2463;DHT22;1243;54.298;10.172;2023-04-24T00:22:33;13.10;13.70
2463;DHT22;1243;54.298;10.172;2023-04-24T00:24:59;13.10;15.30
2463;DHT22;1243;54.298;10.172;2023-04-24T00:27:25;13.10;7.80
2463;DHT22;1243;54.298;10.172;2023-04-24T00:29:51;13.10;7.00
2463;DHT22;1243;54.298;10.172;2023-04-24T00:32:17;13.10;7.40
2463;DHT22;1243;54.298;10.172;2023-04-24T00:34:43;13.10;6.90
2463;DHT22;1243;54.298;10.172;2023-04-24T00:37:09;13.00;8.90
2463;DHT22;1243;54.298;10.172;2023-04-24T00:39:34;13.10;9.50
2463;DHT22;1243;54.298;10.172;2023-04-24T00:42:00;13.00;9.00
2463;DHT22;1243;54.298;10.172;2023-04-24T00:47:34;12.90;9.20
2463;DHT22;1243;54.298;10.172;2023-04-24T00:50:03;12.90;15.20
2463;DHT22;1243;54.298;10.172;2023-04-24T00:52:30;12.90;13.60
2463;DHT22;1243;54.298;10.172;2023-04-24T00:54:59;12.80;16.60
2463;DHT22;1243;54.298;10.172;2023-04-24T00:57:26;12.80;26.60
2463;DHT22;1243;54.298;10.172;2023-04-24T00:59:52;12.70;40.10
2463;DHT22;1243;54.298;10.172;2023-04-24T01:02:19;12.60;60.90
2463;DHT22;1243;54.298;10.172;2023-04-24T01:04:46;12.60;86.50
2463;DHT22;1243;54.298;10.172;2023-04-24T01:07:12;12.50;93.00
2463;DHT22;1243;54.298;10.172;2023-04-24T01:09:40;12.50;98.10
2463;DHT22;1243;54.298;10.172;2023-04-24T01:12:07;12.40;99.90
2463;DHT22;1243;54.298;10.172;2023-04-24T01:14:33;12.40;99.90
2463;DHT22;1243;54.298;10.172;2023-04-24T01:16:59;12.30;99.90
2463;DHT22;1243;54.298;10.172;2023-04-24T01:19:25;12.30;99.90
2463;DHT22;1243;54.298;10.172;2023-04-24T01:21:53;12.30;99.90
2463;DHT22;1243;54.298;10.172;2023-04-24T01:24:20;12.20;99.90
2463;DHT22;1243;54.298;10.172;2023-04-24T01:26:46;12.10;99.90
2463;DHT22;1243;54.298;10.172;2023-04-24T01:29:12;12.10;99.90
2463;DHT22;1243;54.298;10.172;2023-04-24T01:31:39;12.10;99.90
2463;DHT22;1243;54.298;10.172;2023-04-24T01:34:05;12.10;99.90
2463;DHT22;1243;54.298;10.172;2023-04-24T01:36:31;12.10;99.90
2463;DHT22;1243;54.298;10.172;2023-04-24T01:38:58;12.10;99.90
2463;DHT22;1243;54.298;10.172;2023-04-24T01:41:25;12.10;99.90
2463;DHT22;1243;54.298;10.172;2023-04-24T01:43:50;12.00;99.90
2463;DHT22;1243;54.298;10.172;2023-04-24T01:46:16;12.00;99.90
2463;DHT22;1243;54.298;10.172;2023-04-24T01:48:42;12.00;99.90
2463;DHT22;1243;54.298;10.172;2023-04-24T01:51:08;12.00;99.90
2463;DHT22;1243;54.298;10.172;2023-04-24T01:53:33;12.00;99.90
2463;DHT22;1243;54.298;10.172;2023-04-24T01:55:59;12.10;99.90
2463;DHT22;1243;54.298;10.172;2023-04-24T01:58:27;12.10;99.90
2463;DHT22;1243;54.298;10.172;2023-04-24T02:00:52;12.10;99.90
2463;DHT22;1243;54.298;10.172;2023-04-24T02:03:18;12.10;99.90
2463;DHT22;1243;54.298;10.172;2023-04-24T02:05:44;12.00;99.90
2463;DHT22;1243;54.298;10.172;2023-04-24T02:08:10;12.00;99.90
2463;DHT22;1243;54.298;10.172;2023-04-24T02:10:36;12.00;99.90
2463;DHT22;1243;54.298;10.172;2023-04-24T02:13:02;11.90;99.90
2463;DHT22;1243;54.298;10.172;2023-04-24T02:15:27;11.90;99.90
2463;DHT22;1243;54.298;10.172;2023-04-24T02:17:53;11.90;99.90
2463;DHT22;1243;54.298;10.172;2023-04-24T02:20:19;11.90;99.90
2463;DHT22;1243;54.298;10.172;2023-04-24T02:22:45;11.80;99.90
2463;DHT22;1243;54.298;10.172;2023-04-24T02:25:13;11.80;99.90
2463;DHT22;1243;54.298;10.172;2023-04-24T02:27:38;11.80;99.90
2463;DHT22;1243;54.298;10.172;2023-04-24T02:30:05;11.80;99.90
2463;DHT22;1243;54.298;10.172;2023-04-24T02:32:31;11.70;99.90
2463;DHT22;1243;54.298;10.172;2023-04-24T02:34:57;11.80;99.90
2463;DHT22;1243;54.298;10.172;2023-04-24T02:37:22;11.80;99.90
2463;DHT22;1243;54.298;10.172;2023-04-24T02:39:48;11.80;99.90
2463;DHT22;1243;54.298;10.172;2023-04-24T02:42:14;11.80;99.90
2463;DHT22;1243;54.298;10.172;2023-04-24T02:44:40;11.70;99.90
2463;DHT22;1243;54.298;10.172;2023-04-24T02:47:06;11.70;99.90
2463;DHT22;1243;54.298;10.172;2023-04-24T02:49:33;11.70;99.90
2463;DHT22;1243;54.298;10.172;2023-04-24T02:51:58;11.70;99.90
2463;DHT22;1243;54.298;10.172;2023-04-24T02:54:24;11.70;99.90
2463;DHT22;1243;54.298;10.172;2023-04-24T02:56:50;11.70;99.90
2463;DHT22;1243;54.298;10.172;2023-04-24T02:59:15;11.70;99.90
2463;DHT22;1243;54.298;10.172;2023-04-24T03:01:41;11.70;99.90
2463;DHT22;1243;54.298;10.172;2023-04-24T03:04:07;11.60;99.90
2463;DHT22;1243;54.298;10.172;2023-04-24T03:06:33;11.60;99.90
2463;DHT22;1243;54.298;10.172;2023-04-24T03:09:01;11.60;99.90
2463;DHT22;1243;54.298;10.172;2023-04-24T03:11:26;11.60;99.90
2463;DHT22;1243;54.298;10.172;2023-04-24T03:13:52;11.70;99.90
2463;DHT22;1243;54.298;10.172;2023-04-24T03:16:18;11.60;99.90
2463;DHT22;1243;54.298;10.172;2023-04-24T03:18:43;11.50;99.90
2463;DHT22;1243;54.298;10.172;2023-04-24T03:21:09;11.50;99.90
2463;DHT22;1243;54.298;10.172;2023-04-24T03:23:35;11.60;99.90
2463;DHT22;1243;54.298;10.172;2023-04-24T03:26:01;11.50;99.90
2463;DHT22;1243;54.298;10.172;2023-04-24T03:28:27;11.50;99.90
2463;DHT22;1243;54.298;10.172;2023-04-24T03:30:53;11.60;99.90
2463;DHT22;1243;54.298;10.172;2023-04-24T03:33:19;11.60;99.90
2463;DHT22;1243;54.298;10.172;2023-04-24T03:35:44;11.50;99.90
2463;DHT22;1243;54.298;10.172;2023-04-24T03:38:10;11.50;99.90
2463;DHT22;1243;54.298;10.172;2023-04-24T03:40:36;11.50;99.90
2463;DHT22;1243;54.298;10.172;2023-04-24T03:43:01;11.50;99.90
2463;DHT22;1243;54.298;10.172;2023-04-24T03:45:27;11.50;99.90
2463;DHT22;1243;54.298;10.172;2023-04-24T03:47:53;11.40;99.90
2463;DHT22;1243;54.298;10.172;2023-04-24T03:50:19;11.40;99.90
2463;DHT22;1243;54.298;10.172;2023-04-24T03:52:44;11.40;99.90
2463;DHT22;1243;54.298;10.172;2023-04-24T03:55:10;11.40;99.90
2463;DHT22;1243;54.298;10.172;2023-04-24T03:57:39;11.30;99.90
2463;DHT22;1243;54.298;10.172;2023-04-24T04:00:05;11.30;99.90
2463;DHT22;1243;54.298;10.172;2023-04-24T04:02:31;11.30;99.90
2463;DHT22;1243;54.298;10.172;2023-04-24T04:04:57;11.20;99.90
2463;DHT22;1243;54.298;10.172;2023-04-24T04:07:23;11.20;99.90
2463;DHT22;1243;54.298;10.172;2023-04-24T04:09:48;11.20;99.90
2463;DHT22;1243;54.298;10.172;2023-04-24T04:12:14;11.20;99.90
2463;DHT22;1243;54.298;10.172;2023-04-24T04:14:40;11.10;99.90
2463;DHT22;1243;54.298;10.172;2023-04-24T04:17:05;11.10;99.90
2463;DHT22;1243;54.298;10.172;2023-04-24T04:19:31;11.20;99.90
2463;DHT22;1243;54.298;10.172;2023-04-24T04:21:57;11.20;99.90
2463;DHT22;1243;54.298;10.172;2023-04-24T04:24:22;11.20;99.90
2463;DHT22;1243;54.298;10.172;2023-04-24T04:26:49;11.20;99.90
2463;DHT22;1243;54.298;10.172;2023-04-24T04:29:17;11.20;99.90
2463;DHT22;1243;54.298;10.172;2023-04-24T04:31:44;11.20;99.90
2463;DHT22;1243;54.298;10.172;2023-04-24T04:34:10;11.10;99.90
2463;DHT22;1243;54.298;10.172;2023-04-24T04:36:36;11.10;99.90
2463;DHT22;1243;54.298;10.172;2023-04-24T04:39:05;11.00;99.90
2463;DHT22;1243;54.298;10.172;2023-04-24T04:41:31;11.00;99.90
2463;DHT22;1243;54.298;10.172;2023-04-24T04:43:57;11.00;99.90
2463;DHT22;1243;54.298;10.172;2023-04-24T04:46:26;11.00;99.90
2463;DHT22;1243;54.298;10.172;2023-04-24T04:48:53;10.90;99.90
2463;DHT22;1243;54.298;10.172;2023-04-24T04:51:19;10.90;99.90
2463;DHT22;1243;54.298;10.172;2023-04-24T04:53:45;10.90;99.90
2463;DHT22;1243;54.298;10.172;2023-04-24T04:56:11;11.00;99.90
2463;DHT22;1243;54.298;10.172;2023-04-24T04:58:36;11.00;99.90
2463;DHT22;1243;54.298;10.172;2023-04-24T05:01:03;11.00;99.90
2463;DHT22;1243;54.298;10.172;2023-04-24T05:03:28;11.00;99.90
2463;DHT22;1243;54.298;10.172;2023-04-24T05:05:54;11.00;99.90
2463;DHT22;1243;54.298;10.172;2023-04-24T05:08:20;11.10;99.90
2463;DHT22;1243;54.298;10.172;2023-04-24T05:10:45;11.10;99.90
2463;DHT22;1243;54.298;10.172;2023-04-24T05:13:11;11.10;99.90
2463;DHT22;1243;54.298;10.172;2023-04-24T05:15:37;11.10;99.90
2463;DHT22;1243;54.298;10.172;2023-04-24T05:18:02;11.10;99.90
2463;DHT22;1243;54.298;10.172;2023-04-24T05:20:28;11.10;99.90
2463;DHT22;1243;54.298;10.172;2023-04-24T05:22:54;11.10;99.90
2463;DHT22;1243;54.298;10.172;2023-04-24T05:25:19;11.20;99.90
2463;DHT22;1243;54.298;10.172;2023-04-24T05:27:46;11.30;99.90
2463;DHT22;1243;54.298;10.172;2023-04-24T05:30:12;11.30;99.90
2463;DHT22;1243;54.298;10.172;2023-04-24T05:32:38;11.40;99.90
2463;DHT22;1243;54.298;10.172;2023-04-24T05:35:04;11.40;99.90
2463;DHT22;1243;54.298;10.172;2023-04-24T05:37:32;11.50;99.90
2463;DHT22;1243;54.298;10.172;2023-04-24T05:39:58;11.50;99.90
2463;DHT22;1243;54.298;10.172;2023-04-24T05:42:23;11.50;99.90
2463;DHT22;1243;54.298;10.172;2023-04-24T05:44:50;11.60;99.90
2463;DHT22;1243;54.298;10.172;2023-04-24T05:47:16;11.60;99.90
2463;DHT22;1243;54.298;10.172;2023-04-24T05:49:41;11.60;99.90
2463;DHT22;1243;54.298;10.172;2023-04-24T05:52:07;11.80;99.90
2463;DHT22;1243;54.298;10.172;2023-04-24T05:54:34;11.80;99.90
2463;DHT22;1243;54.298;10.172;2023-04-24T05:57:00;11.90;99.90
2463;DHT22;1243;54.298;10.172;2023-04-24T05:59:29;12.00;99.90
2463;DHT22;1243;54.298;10.172;2023-04-24T06:01:55;11.90;99.90
2463;DHT22;1243;54.298;10.172;2023-04-24T06:04:21;11.90;99.90
2463;DHT22;1243;54.298;10.172;2023-04-24T06:06:47;11.90;99.90
2463;DHT22;1243;54.298;10.172;2023-04-24T06:09:16;11.80;99.90
2463;DHT22;1243;54.298;10.172;2023-04-24T06:11:42;11.80;99.90
2463;DHT22;1243;54.298;10.172;2023-04-24T06:14:08;11.90;99.90
2463;DHT22;1243;54.298;10.172;2023-04-24T06:16:33;12.00;99.90
2463;DHT22;1243;54.298;10.172;2023-04-24T06:18:59;12.00;99.90
2463;DHT22;1243;54.298;10.172;2023-04-24T06:21:25;12.00;99.90
2463;DHT22;1243;54.298;10.172;2023-04-24T06:23:51;12.10;99.90
2463;DHT22;1243;54.298;10.172;2023-04-24T06:26:17;12.10;99.90
2463;DHT22;1243;54.298;10.172;2023-04-24T06:28:43;12.20;99.90
2463;DHT22;1243;54.298;10.172;2023-04-24T06:31:09;12.20;92.80
2463;DHT22;1243;54.298;10.172;2023-04-24T06:33:35;12.10;92.80
2463;DHT22;1243;54.298;10.172;2023-04-24T06:36:00;12.10;92.80
2463;DHT22;1243;54.298;10.172;2023-04-24T06:38:26;12.10;92.80
2463;DHT22;1243;54.298;10.172;2023-04-24T06:40:52;12.10;92.80
2463;DHT22;1243;54.298;10.172;2023-04-24T06:43:18;12.20;92.80
2463;DHT22;1243;54.298;10.172;2023-04-24T06:45:44;12.40;91.00
2463;DHT22;1243;54.298;10.172;2023-04-24T06:48:11;12.50;69.90
2463;DHT22;1243;54.298;10.172;2023-04-24T06:50:37;12.50;56.70
2463;DHT22;1243;54.298;10.172;2023-04-24T06:53:03;12.50;50.60
2463;DHT22;1243;54.298;10.172;2023-04-24T06:55:28;12.50;36.60
2463;DHT22;1243;54.298;10.172;2023-04-24T06:57:54;12.50;28.20
2463;DHT22;1243;54.298;10.172;2023-04-24T07:00:20;12.50;25.90
2463;DHT22;1243;54.298;10.172;2023-04-24T07:02:46;12.60;16.90
2463;DHT22;1243;54.298;10.172;2023-04-24T07:05:11;12.50;18.80
2463;DHT22;1243;54.298;10.172;2023-04-24T07:07:38;12.50;15.00
2463;DHT22;1243;54.298;10.172;2023-04-24T07:10:05;12.60;11.60
2463;DHT22;1243;54.298;10.172;2023-04-24T07:12:31;12.60;5.30
2463;DHT22;1243;54.298;10.172;2023-04-24T07:14:57;12.60;5.20
2463;DHT22;1243;54.298;10.172;2023-04-24T07:17:23;12.60;1.80
2463;DHT22;1243;54.298;10.172;2023-04-24T07:19:49;12.60;1.00
2463;DHT22;1243;54.298;10.172;2023-04-24T07:22:15;12.60;1.00
2463;DHT22;1243;54.298;10.172;2023-04-24T07:24:44;12.70;1.00
2463;DHT22;1243;54.298;10.172;2023-04-24T07:27:09;12.70;1.00
2463;DHT22;1243;54.298;10.172;2023-04-24T07:29:35;12.60;1.00
2463;DHT22;1243;54.298;10.172;2023-04-24T07:32:01;12.70;1.00
2463;DHT22;1243;54.298;10.172;2023-04-24T07:34:27;12.70;1.00
2463;DHT22;1243;54.298;10.172;2023-04-24T07:36:52;12.70;1.00
2463;DHT22;1243;54.298;10.172;2023-04-24T07:39:18;12.80;1.00
2463;DHT22;1243;54.298;10.172;2023-04-24T07:41:44;12.80;1.00
2463;DHT22;1243;54.298;10.172;2023-04-24T07:44:10;12.90;1.00
2463;DHT22;1243;54.298;10.172;2023-04-24T07:46:36;12.90;1.00
2463;DHT22;1243;54.298;10.172;2023-04-24T07:49:01;12.90;1.00
2463;DHT22;1243;54.298;10.172;2023-04-24T07:51:27;13.00;1.00
2463;DHT22;1243;54.298;10.172;2023-04-24T07:53:59;13.00;1.00
2463;DHT22;1243;54.298;10.172;2023-04-24T07:56:24;13.00;1.00
2463;DHT22;1243;54.298;10.172;2023-04-24T07:58:50;13.00;1.00
2463;DHT22;1243;54.298;10.172;2023-04-24T08:01:16;13.00;1.00
2463;DHT22;1243;54.298;10.172;2023-04-24T08:03:42;12.90;1.00
2463;DHT22;1243;54.298;10.172;2023-04-24T08:06:07;12.90;1.00
2463;DHT22;1243;54.298;10.172;2023-04-24T08:08:33;12.90;1.00
2463;DHT22;1243;54.298;10.172;2023-04-24T08:10:59;13.00;1.00
2463;DHT22;1243;54.298;10.172;2023-04-24T08:13:25;12.90;1.00
2463;DHT22;1243;54.298;10.172;2023-04-24T08:15:50;12.90;1.00
2463;DHT22;1243;54.298;10.172;2023-04-24T08:18:16;12.90;1.00
2463;DHT22;1243;54.298;10.172;2023-04-24T08:20:42;12.90;1.00
2463;DHT22;1243;54.298;10.172;2023-04-24T08:23:08;12.90;1.00
2463;DHT22;1243;54.298;10.172;2023-04-24T08:25:33;12.80;1.00
2463;DHT22;1243;54.298;10.172;2023-04-24T08:28:02;12.80;1.00
2463;DHT22;1243;54.298;10.172;2023-04-24T08:30:28;12.70;1.00
2463;DHT22;1243;54.298;10.172;2023-04-24T08:32:54;12.60;1.00
2463;DHT22;1243;54.298;10.172;2023-04-24T08:35:20;12.60;1.00
2463;DHT22;1243;54.298;10.172;2023-04-24T08:37:48;12.80;1.00
2463;DHT22;1243;54.298;10.172;2023-04-24T08:40:15;12.80;1.00
2463;DHT22;1243;54.298;10.172;2023-04-24T08:42:43;12.90;1.00
2463;DHT22;1243;54.298;10.172;2023-04-24T08:45:12;12.90;1.00
2463;DHT22;1243;54.298;10.172;2023-04-24T08:47:40;12.90;1.00
2463;DHT22;1243;54.298;10.172;2023-04-24T08:50:06;12.90;1.00
2463;DHT22;1243;54.298;10.172;2023-04-24T08:52:34;12.90;1.00
2463;DHT22;1243;54.298;10.172;2023-04-24T08:55:00;12.90;1.00
2463;DHT22;1243;54.298;10.172;2023-04-24T08:57:26;12.90;1.00
2463;DHT22;1243;54.298;10.172;2023-04-24T08:59:53;12.90;1.00
2463;DHT22;1243;54.298;10.172;2023-04-24T09:02:21;13.00;1.00
2463;DHT22;1243;54.298;10.172;2023-04-24T09:04:47;13.00;1.00
2463;DHT22;1243;54.298;10.172;2023-04-24T09:07:16;13.10;1.00
2463;DHT22;1243;54.298;10.172;2023-04-24T09:09:42;13.20;1.00
2463;DHT22;1243;54.298;10.172;2023-04-24T09:12:09;13.30;1.00
2463;DHT22;1243;54.298;10.172;2023-04-24T09:14:36;13.40;1.00
2463;DHT22;1243;54.298;10.172;2023-04-24T09:17:06;13.40;1.00
2463;DHT22;1243;54.298;10.172;2023-04-24T09:19:31;13.30;1.00
2463;DHT22;1243;54.298;10.172;2023-04-24T09:21:57;13.20;1.00
2463;DHT22;1243;54.298;10.172;2023-04-24T09:24:23;13.10;1.00
2463;DHT22;1243;54.298;10.172;2023-04-24T09:26:58;13.10;1.00
2463;DHT22;1243;54.298;10.172;2023-04-24T09:29:24;13.10;1.00
2463;DHT22;1243;54.298;10.172;2023-04-24T09:31:50;13.00;1.00
2463;DHT22;1243;54.298;10.172;2023-04-24T09:34:25;13.10;1.00
2463;DHT22;1243;54.298;10.172;2023-04-24T09:36:51;13.20;1.00
2463;DHT22;1243;54.298;10.172;2023-04-24T09:39:18;13.30;1.00
2463;DHT22;1243;54.298;10.172;2023-04-24T09:41:51;13.40;1.00
2463;DHT22;1243;54.298;10.172;2023-04-24T09:44:21;13.40;1.00
2463;DHT22;1243;54.298;10.172;2023-04-24T09:47:08;13.40;1.00
2463;DHT22;1243;54.298;10.172;2023-04-24T09:49:35;13.40;1.00
2463;DHT22;1243;54.298;10.172;2023-04-24T09:52:09;13.30;1.00
2463;DHT22;1243;54.298;10.172;2023-04-24T09:54:35;13.30;1.00
2463;DHT22;1243;54.298;10.172;2023-04-24T09:57:05;13.30;1.00
2463;DHT22;1243;54.298;10.172;2023-04-24T09:59:32;13.30;1.00
2463;DHT22;1243;54.298;10.172;2023-04-24T10:01:59;13.50;1.00
2463;DHT22;1243;54.298;10.172;2023-04-24T10:04:27;13.70;1.00
2463;DHT22;1243;54.298;10.172;2023-04-24T10:06:56;13.80;1.00
2463;DHT22;1243;54.298;10.172;2023-04-24T10:09:25;14.00;1.00
2463;DHT22;1243;54.298;10.172;2023-04-24T10:11:52;14.00;1.00
2463;DHT22;1243;54.298;10.172;2023-04-24T10:14:23;14.20;1.00
2463;DHT22;1243;54.298;10.172;2023-04-24T10:16:58;14.40;1.00
2463;DHT22;1243;54.298;10.172;2023-04-24T10:19:26;14.50;1.00
2463;DHT22;1243;54.298;10.172;2023-04-24T10:21:52;14.50;1.00
2463;DHT22;1243;54.298;10.172;2023-04-24T10:27:32;14.40;1.00
2463;DHT22;1243;54.298;10.172;2023-04-24T10:29:58;14.20;1.00
2463;DHT22;1243;54.298;10.172;2023-04-24T10:32:26;14.10;1.00
2463;DHT22;1243;54.298;10.172;2023-04-24T10:34:51;14.00;1.00
2463;DHT22;1243;54.298;10.172;2023-04-24T10:37:17;14.00;1.00
2463;DHT22;1243;54.298;10.172;2023-04-24T10:39:48;13.80;1.00
2463;DHT22;1243;54.298;10.172;2023-04-24T10:42:17;13.70;1.00
2463;DHT22;1243;54.298;10.172;2023-04-24T10:44:43;13.70;1.00
2463;DHT22;1243;54.298;10.172;2023-04-24T10:47:13;13.60;1.00
2463;DHT22;1243;54.298;10.172;2023-04-24T10:49:40;13.60;1.00
2463;DHT22;1243;54.298;10.172;2023-04-24T10:52:05;13.50;1.00
2463;DHT22;1243;54.298;10.172;2023-04-24T10:59:51;13.30;1.00
2463;DHT22;1243;54.298;10.172;2023-04-24T11:02:38;13.40;1.00
2463;DHT22;1243;54.298;10.172;2023-04-24T11:05:06;13.50;1.00
2463;DHT22;1243;54.298;10.172;2023-04-24T11:08:10;13.50;1.00
2463;DHT22;1243;54.298;10.172;2023-04-24T11:10:47;13.70;1.00
2463;DHT22;1243;54.298;10.172;2023-04-24T11:13:22;14.00;1.00
2463;DHT22;1243;54.298;10.172;2023-04-24T11:16:15;14.10;1.00
2463;DHT22;1243;54.298;10.172;2023-04-24T11:18:44;14.30;1.00
2463;DHT22;1243;54.298;10.172;2023-04-24T11:21:19;14.60;1.00
2463;DHT22;1243;54.298;10.172;2023-04-24T11:23:45;14.70;1.00
2463;DHT22;1243;54.298;10.172;2023-04-24T11:26:18;14.70;1.00
2463;DHT22;1243;54.298;10.172;2023-04-24T11:28:50;14.60;1.00
2463;DHT22;1243;54.298;10.172;2023-04-24T11:31:35;14.30;1.00
2463;DHT22;1243;54.298;10.172;2023-04-24T11:34:13;14.10;1.00
2463;DHT22;1243;54.298;10.172;2023-04-24T11:36:42;14.00;1.00
2463;DHT22;1243;54.298;10.172;2023-04-24T11:39:08;13.90;1.00
2463;DHT22;1243;54.298;10.172;2023-04-24T11:41:36;13.70;1.00
2463;DHT22;1243;54.298;10.172;2023-04-24T11:44:02;13.60;1.00
2463;DHT22;1243;54.298;10.172;2023-04-24T11:46:30;13.50;1.00
2463;DHT22;1243;54.298;10.172;2023-04-24T11:48:57;13.40;1.00
2463;DHT22;1243;54.298;10.172;2023-04-24T11:51:24;13.40;1.00
2463;DHT22;1243;54.298;10.172;2023-04-24T11:53:54;13.50;1.00
2463;DHT22;1243;54.298;10.172;2023-04-24T11:56:24;13.70;1.00
2463;DHT22;1243;54.298;10.172;2023-04-24T11:58:52;14.00;1.00
2463;DHT22;1243;54.298;10.172;2023-04-24T12:01:20;14.20;1.00
2463;DHT22;1243;54.298;10.172;2023-04-24T12:03:50;14.00;1.00
2463;DHT22;1243;54.298;10.172;2023-04-24T12:06:17;13.90;1.00
2463;DHT22;1243;54.298;10.172;2023-04-24T12:08:46;13.80;1.00
2463;DHT22;1243;54.298;10.172;2023-04-24T12:11:15;13.60;1.00
2463;DHT22;1243;54.298;10.172;2023-04-24T12:13:41;13.60;1.00
2463;DHT22;1243;54.298;10.172;2023-04-24T12:16:07;13.60;1.00
2463;DHT22;1243;54.298;10.172;2023-04-24T12:18:33;13.80;1.00
2463;DHT22;1243;54.298;10.172;2023-04-24T12:23:44;14.80;1.00
2463;DHT22;1243;54.298;10.172;2023-04-24T12:26:11;15.50;1.00
2463;DHT22;1243;54.298;10.172;2023-04-24T12:28:41;15.80;1.00
2463;DHT22;1243;54.298;10.172;2023-04-24T12:31:07;15.90;1.00
2463;DHT22;1243;54.298;10.172;2023-04-24T12:33:34;16.20;1.00
2463;DHT22;1243;54.298;10.172;2023-04-24T12:39:17;16.90;1.00
2463;DHT22;1243;54.298;10.172;2023-04-24T12:41:57;16.90;1.00
2463;DHT22;1243;54.298;10.172;2023-04-24T12:44:35;16.60;1.00
2463;DHT22;1243;54.298;10.172;2023-04-24T12:47:02;16.20;1.00
2463;DHT22;1243;54.298;10.172;2023-04-24T12:49:33;16.20;1.00
2463;DHT22;1243;54.298;10.172;2023-04-24T12:52:08;16.60;1.00
2463;DHT22;1243;54.298;10.172;2023-04-24T12:54:36;16.60;1.00
2463;DHT22;1243;54.298;10.172;2023-04-24T12:57:05;16.80;1.00
2463;DHT22;1243;54.298;10.172;2023-04-24T13:00:00;16.80;1.00
2463;DHT22;1243;54.298;10.172;2023-04-24T13:02:28;16.80;1.00
2463;DHT22;1243;54.298;10.172;2023-04-24T13:04:58;16.60;1.00
2463;DHT22;1243;54.298;10.172;2023-04-24T13:07:33;16.30;1.00
2463;DHT22;1243;54.298;10.172;2023-04-24T13:10:02;16.00;1.00
2463;DHT22;1243;54.298;10.172;2023-04-24T13:12:28;15.50;1.00
2463;DHT22;1243;54.298;10.172;2023-04-24T13:14:54;15.30;1.00
2463;DHT22;1243;54.298;10.172;2023-04-24T13:17:21;15.20;1.00
2463;DHT22;1243;54.298;10.172;2023-04-24T13:19:49;14.80;1.00
2463;DHT22;1243;54.298;10.172;2023-04-24T13:22:15;14.60;1.00
2463;DHT22;1243;54.298;10.172;2023-04-24T13:24:42;14.70;1.00
2463;DHT22;1243;54.298;10.172;2023-04-24T13:27:08;14.70;1.00
2463;DHT22;1243;54.298;10.172;2023-04-24T13:29:47;14.70;1.00
2463;DHT22;1243;54.298;10.172;2023-04-24T13:32:12;14.60;1.00
2463;DHT22;1243;54.298;10.172;2023-04-24T13:34:38;14.30;1.00
2463;DHT22;1243;54.298;10.172;2023-04-24T13:37:05;14.30;1.00
2463;DHT22;1243;54.298;10.172;2023-04-24T13:39:31;14.20;1.00
2463;DHT22;1243;54.298;10.172;2023-04-24T13:41:57;14.10;1.00
2463;DHT22;1243;54.298;10.172;2023-04-24T13:44:23;13.90;1.00
2463;DHT22;1243;54.298;10.172;2023-04-24T13:46:51;13.90;1.00
2463;DHT22;1243;54.298;10.172;2023-04-24T13:49:18;13.70;1.00
2463;DHT22;1243;54.298;10.172;2023-04-24T13:51:44;13.60;1.00
2463;DHT22;1243;54.298;10.172;2023-04-24T13:54:11;13.60;1.00
2463;DHT22;1243;54.298;10.172;2023-04-24T13:56:37;13.50;1.00
2463;DHT22;1243;54.298;10.172;2023-04-24T13:59:02;13.40;1.00
2463;DHT22;1243;54.298;10.172;2023-04-24T14:01:28;13.50;1.00
2463;DHT22;1243;54.298;10.172;2023-04-24T14:03:55;13.50;1.00
2463;DHT22;1243;54.298;10.172;2023-04-24T14:06:21;13.60;1.00
2463;DHT22;1243;54.298;10.172;2023-04-24T14:08:47;13.70;1.00
2463;DHT22;1243;54.298;10.172;2023-04-24T14:11:14;13.80;1.00
2463;DHT22;1243;54.298;10.172;2023-04-24T14:13:41;13.90;1.00
2463;DHT22;1243;54.298;10.172;2023-04-24T14:16:07;14.00;1.00
2463;DHT22;1243;54.298;10.172;2023-04-24T14:18:33;14.00;1.00
2463;DHT22;1243;54.298;10.172;2023-04-24T14:20:59;14.00;1.00
2463;DHT22;1243;54.298;10.172;2023-04-24T14:23:27;14.10;1.00
2463;DHT22;1243;54.298;10.172;2023-04-24T14:25:52;14.20;1.00
2463;DHT22;1243;54.298;10.172;2023-04-24T14:28:19;14.00;1.00
2463;DHT22;1243;54.298;10.172;2023-04-24T14:30:46;13.90;1.00
2463;DHT22;1243;54.298;10.172;2023-04-24T14:33:22;13.90;1.00
2463;DHT22;1243;54.298;10.172;2023-04-24T14:35:50;14.10;1.00
2463;DHT22;1243;54.298;10.172;2023-04-24T14:38:22;14.60;1.00
2463;DHT22;1243;54.298;10.172;2023-04-24T14:41:34;15.10;1.00
2463;DHT22;1243;54.298;10.172;2023-04-24T14:44:02;15.20;1.00
2463;DHT22;1243;54.298;10.172;2023-04-24T14:46:29;15.20;1.00
2463;DHT22;1243;54.298;10.172;2023-04-24T14:48:56;15.00;1.00
2463;DHT22;1243;54.298;10.172;2023-04-24T14:51:22;14.80;1.00
2463;DHT22;1243;54.298;10.172;2023-04-24T14:53:48;14.40;1.00
2463;DHT22;1243;54.298;10.172;2023-04-24T14:56:14;13.90;1.00
2463;DHT22;1243;54.298;10.172;2023-04-24T14:58:40;13.80;1.00
2463;DHT22;1243;54.298;10.172;2023-04-24T15:01:06;13.70;1.00
2463;DHT22;1243;54.298;10.172;2023-04-24T15:03:31;13.50;1.00
2463;DHT22;1243;54.298;10.172;2023-04-24T15:05:57;13.30;1.00
2463;DHT22;1243;54.298;10.172;2023-04-24T15:08:23;13.40;1.00
2463;DHT22;1243;54.298;10.172;2023-04-24T15:10:54;13.40;1.00
2463;DHT22;1243;54.298;10.172;2023-04-24T15:13:20;13.50;1.00
2463;DHT22;1243;54.298;10.172;2023-04-24T15:15:46;13.30;1.00
2463;DHT22;1243;54.298;10.172;2023-04-24T15:18:12;13.20;1.00
2463;DHT22;1243;54.298;10.172;2023-04-24T15:20:38;13.10;1.00
2463;DHT22;1243;54.298;10.172;2023-04-24T15:23:05;13.10;1.00
2463;DHT22;1243;54.298;10.172;2023-04-24T15:25:31;13.10;1.00
2463;DHT22;1243;54.298;10.172;2023-04-24T15:27:58;13.20;1.00
2463;DHT22;1243;54.298;10.172;2023-04-24T15:30:24;13.50;1.00
2463;DHT22;1243;54.298;10.172;2023-04-24T15:32:50;13.30;1.00
2463;DHT22;1243;54.298;10.172;2023-04-24T15:35:16;13.20;1.00
2463;DHT22;1243;54.298;10.172;2023-04-24T15:37:43;13.10;1.00
2463;DHT22;1243;54.298;10.172;2023-04-24T15:40:09;13.00;1.00
2463;DHT22;1243;54.298;10.172;2023-04-24T15:42:36;12.80;1.00
2463;DHT22;1243;54.298;10.172;2023-04-24T15:45:03;12.50;1.00
2463;DHT22;1243;54.298;10.172;2023-04-24T15:47:28;12.30;1.00
2463;DHT22;1243;54.298;10.172;2023-04-24T15:49:55;12.20;1.00
2463;DHT22;1243;54.298;10.172;2023-04-24T15:52:21;12.20;1.00
2463;DHT22;1243;54.298;10.172;2023-04-24T15:54:47;12.30;1.00
2463;DHT22;1243;54.298;10.172;2023-04-24T15:57:12;12.10;1.00
2463;DHT22;1243;54.298;10.172;2023-04-24T15:59:38;12.00;1.00
2463;DHT22;1243;54.298;10.172;2023-04-24T16:02:04;12.00;1.00
2463;DHT22;1243;54.298;10.172;2023-04-24T16:04:30;12.10;1.00
2463;DHT22;1243;54.298;10.172;2023-04-24T16:06:56;12.10;1.00
2463;DHT22;1243;54.298;10.172;2023-04-24T16:09:22;12.00;1.00
2463;DHT22;1243;54.298;10.172;2023-04-24T16:11:51;11.90;1.00
2463;DHT22;1243;54.298;10.172;2023-04-24T16:14:17;11.80;1.00
2463;DHT22;1243;54.298;10.172;2023-04-24T16:16:42;11.80;1.00